createdAt,value
2022-08-26T00:01:00.506Z,66.45
2022-08-26T00:03:48.424Z,66.02
2022-08-26T00:06:37.404Z,66.22
2022-08-26T00:09:24.735Z,66.03
2022-08-26T00:12:05.550Z,65.78
2022-08-26T00:14:52.326Z,65.88
2022-08-26T00:17:32.464Z,66.07
2022-08-26T00:20:22.366Z,65.79
2022-08-26T00:23:10.316Z,66.17
2022-08-26T00:25:50.864Z,66.21
2022-08-26T00:28:38.323Z,66.19
2022-08-26T00:31:20.815Z,66.46
2022-08-26T00:34:09.445Z,66.45
2022-08-26T00:36:56.330Z,66.65
2022-08-26T00:39:36.402Z,66.60
2022-08-26T00:42:23.280Z,66.42
2022-08-26T00:45:11.640Z,66.33
2022-08-26T00:48:08.307Z,66.03
2022-08-26T00:50:57.465Z,65.49
2022-08-26T00:53:52.321Z,65.41
2022-08-26T00:56:57.811Z,65.58
2022-08-26T00:59:48.313Z,65.23
2022-08-26T01:02:28.945Z,65.16
2022-08-26T01:05:18.375Z,65.48
2022-08-26T01:07:58.422Z,65.15
2022-08-26T01:10:45.277Z,65.04
2022-08-26T01:13:26.392Z,64.79
2022-08-26T01:16:15.386Z,64.45
2022-08-26T01:18:56.437Z,64.21
2022-08-26T01:21:55.266Z,64.03
2022-08-26T01:24:37.395Z,63.68
2022-08-26T01:27:27.265Z,63.61
2022-08-26T01:30:13.400Z,63.18
2022-08-26T01:33:03.208Z,63.16
2022-08-26T01:35:44.787Z,62.70
2022-08-26T01:38:31.560Z,62.36
2022-08-26T01:41:16.236Z,62.32
2022-08-26T01:44:07.244Z,62.00
2022-08-26T01:46:58.222Z,61.96
2022-08-26T01:49:39.000Z,62.13
2022-08-26T01:52:31.264Z,61.74
2022-08-26T01:55:15.339Z,61.48
2022-08-26T01:58:25.303Z,61.63
2022-08-26T02:01:13.361Z,61.16
2022-08-26T02:04:09.284Z,61.09
2022-08-26T02:06:51.470Z,60.23
2022-08-26T02:09:41.392Z,60.35
2022-08-26T02:12:22.350Z,60.05
2022-08-26T02:15:13.214Z,59.93
2022-08-26T02:18:00.220Z,59.42
2022-08-26T02:20:40.335Z,59.66
2022-08-26T02:23:27.207Z,59.36
2022-08-26T02:26:17.931Z,58.62
2022-08-26T02:29:19.220Z,58.46
2022-08-26T02:32:01.300Z,58.70
2022-08-26T02:34:48.233Z,58.77
2022-08-26T02:37:28.333Z,58.94
2022-08-26T02:40:17.212Z,58.87
2022-08-26T02:42:57.335Z,59.06
2022-08-26T02:45:44.185Z,59.52
2022-08-26T02:48:27.348Z,59.44
2022-08-26T02:51:14.169Z,59.62
2022-08-26T02:53:54.324Z,59.70
2022-08-26T02:56:42.183Z,60.54
2022-08-26T02:59:24.349Z,60.55
2022-08-26T03:02:11.385Z,60.37
2022-08-26T03:04:57.707Z,60.71
2022-08-26T03:26:14.989Z,58.04
2022-08-26T03:29:21.988Z,58.44
2022-08-26T03:32:04.126Z,58.00
2022-08-26T03:34:50.992Z,57.72
2022-08-26T03:37:31.275Z,57.47
2022-08-26T03:40:14.022Z,56.64
2022-08-26T03:42:54.419Z,56.20
2022-08-26T03:45:41.980Z,56.33
2022-08-26T03:48:28.991Z,55.01
2022-08-26T03:51:11.096Z,54.70
2022-08-26T03:53:57.995Z,53.92
2022-08-26T03:56:38.601Z,54.00
2022-08-26T03:59:26.938Z,53.89
2022-08-26T04:02:08.439Z,53.89
2022-08-26T04:04:57.958Z,52.88
2022-08-26T04:07:38.074Z,52.52
2022-08-26T04:10:30.980Z,51.96
2022-08-26T04:13:18.959Z,51.61
2022-08-26T04:15:59.467Z,51.58
2022-08-26T04:18:46.851Z,51.88
2022-08-26T04:21:28.594Z,51.20
2022-08-26T04:24:15.935Z,50.60
2022-08-26T04:26:57.357Z,50.16
2022-08-26T04:29:45.957Z,49.14
2022-08-26T04:32:28.682Z,49.88
2022-08-26T04:35:15.901Z,50.97
2022-08-26T04:37:57.490Z,50.06
2022-08-26T04:40:43.905Z,50.84
2022-08-26T04:43:30.647Z,50.66
2022-08-26T04:46:19.070Z,49.99
2022-08-26T04:48:59.323Z,50.04
2022-08-26T04:51:45.905Z,49.36
2022-08-26T04:54:26.417Z,48.30
2022-08-26T04:57:12.847Z,47.26
2022-08-26T04:59:59.882Z,45.99
2022-08-26T05:02:47.885Z,45.51
2022-08-26T05:05:32.091Z,43.46
2022-08-26T05:08:18.914Z,44.87
2022-08-26T05:11:05.852Z,44.10
2022-08-26T05:13:46.001Z,44.85
2022-08-26T05:16:33.881Z,42.61
2022-08-26T05:19:18.728Z,42.54
2022-08-26T05:22:05.896Z,42.38
2022-08-26T05:24:59.879Z,41.60
2022-08-26T05:27:46.875Z,40.48
2022-08-26T05:30:26.983Z,40.45
2022-08-26T05:33:15.852Z,39.09
2022-08-26T05:35:55.997Z,39.66
2022-08-26T05:38:44.006Z,37.96
2022-08-26T05:41:36.606Z,37.80
2022-08-26T05:44:19.912Z,35.52
2022-08-26T05:47:00.270Z,34.64
2022-08-26T05:49:51.255Z,33.05
2022-08-26T05:52:42.783Z,33.42
2022-08-26T05:55:23.848Z,33.38
2022-08-26T05:58:04.257Z,33.47
2022-08-26T06:00:51.899Z,33.87
2022-08-26T06:03:35.778Z,33.76
2022-08-26T06:06:27.469Z,34.19
2022-08-26T06:09:11.214Z,32.82
2022-08-26T06:11:57.847Z,32.51
2022-08-26T06:14:44.814Z,36.63
2022-08-26T06:17:29.791Z,37.08
2022-08-26T06:20:17.805Z,38.60
2022-08-26T06:23:16.737Z,37.72
2022-08-26T06:26:03.816Z,38.79
2022-08-26T06:28:45.686Z,36.51
2022-08-26T06:31:33.852Z,35.95
2022-08-26T06:34:20.812Z,35.46
2022-08-26T06:37:12.845Z,33.88
2022-08-26T06:39:53.002Z,33.81
2022-08-26T06:42:39.790Z,31.99
2022-08-26T06:45:19.915Z,29.79
2022-08-26T06:48:06.773Z,27.49
2022-08-26T06:50:54.845Z,26.92
2022-08-26T06:53:36.938Z,27.45
2022-08-26T06:56:25.821Z,27.21
2022-08-26T06:59:07.711Z,28.03
2022-08-26T07:01:56.817Z,28.71
2022-08-26T07:04:37.176Z,29.93
2022-08-26T07:07:27.731Z,27.77
2022-08-26T07:10:15.741Z,29.02
2022-08-26T07:12:55.878Z,28.38
2022-08-26T07:15:48.838Z,29.02
2022-08-26T07:18:44.961Z,28.35
2022-08-26T07:21:26.511Z,27.57
2022-08-26T07:24:13.763Z,26.37
2022-08-26T07:27:05.913Z,26.67
2022-08-26T07:29:54.791Z,26.07
2022-08-26T07:32:35.506Z,23.72
2022-08-26T07:35:22.777Z,25.09
2022-08-26T07:38:04.098Z,25.79
2022-08-26T07:40:51.741Z,28.22
2022-08-26T07:43:35.210Z,27.48
2022-08-26T07:46:30.326Z,32.88
2022-08-26T07:49:18.874Z,35.04
2022-08-26T07:51:59.846Z,36.27
2022-08-26T07:54:47.759Z,36.86
2022-08-26T07:57:34.740Z,37.34
2022-08-26T08:00:16.741Z,37.10
2022-08-26T08:03:03.763Z,38.34
2022-08-26T08:05:46.421Z,39.03
2022-08-26T08:08:33.754Z,37.30
2022-08-26T08:11:21.727Z,36.15
2022-08-26T08:14:11.633Z,37.94
2022-08-26T08:16:58.788Z,37.38
2022-08-26T08:19:45.689Z,39.61
2022-08-26T08:22:26.172Z,39.11
2022-08-26T08:25:13.683Z,39.15
2022-08-26T08:27:54.303Z,40.81
2022-08-26T08:30:41.718Z,41.09
2022-08-26T08:33:22.715Z,41.78
2022-08-26T08:36:10.671Z,41.85
2022-08-26T08:39:06.498Z,41.35
2022-08-26T08:42:06.703Z,41.96
2022-08-26T08:44:52.135Z,41.12
2022-08-26T08:47:46.702Z,41.53
2022-08-26T08:50:30.017Z,42.12
2022-08-26T08:53:29.744Z,41.81
2022-08-26T08:56:30.723Z,41.38
2022-08-26T08:59:32.816Z,41.69
2022-08-26T09:02:57.766Z,40.71
2022-08-26T09:05:48.725Z,42.82
2022-08-26T09:08:42.735Z,41.57
2022-08-26T09:11:22.881Z,41.64
2022-08-26T09:14:09.743Z,41.61
2022-08-26T09:16:51.815Z,42.51
2022-08-26T09:19:52.733Z,40.95
2022-08-26T09:22:51.740Z,40.57
2022-08-26T09:25:45.755Z,41.82
2022-08-26T09:28:33.678Z,41.55
2022-08-26T09:31:21.000Z,40.81
2022-08-26T09:34:24.642Z,41.08
2022-08-26T09:37:06.798Z,40.62
2022-08-26T09:39:53.664Z,41.60
2022-08-26T09:42:33.866Z,41.42
2022-08-26T09:45:20.714Z,41.33
2022-08-26T09:48:03.836Z,39.72
2022-08-26T09:51:02.644Z,40.13
2022-08-26T09:53:57.978Z,40.73
2022-08-26T09:56:45.565Z,40.34
2022-08-26T09:59:44.618Z,42.38
2022-08-26T10:02:58.156Z,42.97
2022-08-26T10:05:52.726Z,44.64
2022-08-26T10:08:49.696Z,46.87
2022-08-26T10:11:52.624Z,46.94
2022-08-26T10:14:46.705Z,46.45
2022-08-26T10:17:39.743Z,46.58
2022-08-26T10:20:33.678Z,44.96
2022-08-26T10:23:29.899Z,46.12
2022-08-26T10:26:34.600Z,45.06
2022-08-26T10:29:58.619Z,44.89
2022-08-26T10:33:21.685Z,43.08
2022-08-26T10:36:28.711Z,43.86
2022-08-26T10:39:23.577Z,44.53
2022-08-26T10:42:16.623Z,43.14
2022-08-26T10:45:06.056Z,43.67
2022-08-26T10:48:00.640Z,42.98
2022-08-26T10:50:52.595Z,43.95
2022-08-26T10:54:13.626Z,44.25
2022-08-26T10:57:14.648Z,43.70
2022-08-26T11:00:37.631Z,43.43
2022-08-26T11:03:23.648Z,44.02
2022-08-26T11:06:31.685Z,44.51
2022-08-26T11:09:19.551Z,42.88
2022-08-26T11:12:10.326Z,43.24
2022-08-26T11:14:59.218Z,43.98
2022-08-26T11:18:00.107Z,44.18
2022-08-26T11:20:52.564Z,43.76
2022-08-26T11:23:33.690Z,42.72
2022-08-26T11:26:36.154Z,43.84
2022-08-26T11:30:08.539Z,43.39
2022-08-26T11:32:53.893Z,43.17
2022-08-26T11:35:40.547Z,43.72
2022-08-26T11:38:28.895Z,43.57
2022-08-26T11:41:36.500Z,43.77
2022-08-26T11:44:31.544Z,43.87
2022-08-26T11:47:11.830Z,42.90
2022-08-26T11:50:15.565Z,42.40
2022-08-26T11:53:07.845Z,42.96
2022-08-26T11:55:55.556Z,43.31
2022-08-26T11:58:43.606Z,44.23
2022-08-26T12:01:31.428Z,44.14
2022-08-26T12:04:21.620Z,43.60
2022-08-26T12:07:02.644Z,44.36
2022-08-26T12:10:03.493Z,44.78
2022-08-26T12:12:51.486Z,45.10
2022-08-26T12:15:39.572Z,44.90
2022-08-26T12:18:30.107Z,45.55
2022-08-26T12:21:34.778Z,45.40
2022-08-26T12:24:26.292Z,45.40
2022-08-26T12:27:27.449Z,45.34
2022-08-26T12:30:17.979Z,46.65
2022-08-26T12:33:22.817Z,45.58
2022-08-26T12:36:05.034Z,46.25
2022-08-26T12:38:52.483Z,45.30
2022-08-26T12:41:48.622Z,44.19
2022-08-26T12:44:38.456Z,44.55
2022-08-26T12:47:43.135Z,43.28
2022-08-26T12:50:35.451Z,44.50
2022-08-26T12:53:15.666Z,41.82
2022-08-26T12:56:09.424Z,42.91
2022-08-26T12:58:56.430Z,44.69
2022-08-26T13:01:51.602Z,43.53
2022-08-26T13:04:46.220Z,39.52
2022-08-26T13:07:33.445Z,39.13
2022-08-26T13:10:13.563Z,40.23
2022-08-26T13:13:00.437Z,38.50
2022-08-26T13:15:40.659Z,38.46
2022-08-26T13:18:27.422Z,38.81
2022-08-26T13:21:07.544Z,37.17
2022-08-26T13:23:55.388Z,37.17
2022-08-26T13:26:35.796Z,37.25
2022-08-26T13:29:22.415Z,36.84
2022-08-26T13:32:04.773Z,37.17
2022-08-26T13:34:55.418Z,36.26
2022-08-26T13:37:35.689Z,37.00
2022-08-26T13:40:22.468Z,36.85
2022-08-26T13:43:02.848Z,36.43
2022-08-26T13:45:49.390Z,36.29
2022-08-26T13:48:29.533Z,36.76
2022-08-26T13:51:16.350Z,37.44
2022-08-26T13:53:57.775Z,37.02
2022-08-26T13:56:44.383Z,36.15
2022-08-26T13:59:24.558Z,36.58
2022-08-26T14:02:11.391Z,37.04
2022-08-26T14:04:58.361Z,36.45
2022-08-26T14:07:39.239Z,36.02
2022-08-26T14:10:26.379Z,36.19
2022-08-26T14:13:07.601Z,36.70
2022-08-26T14:15:54.418Z,36.98
2022-08-26T14:18:50.720Z,36.80
2022-08-26T14:21:38.440Z,36.96
2022-08-26T14:24:25.364Z,36.60
2022-08-26T14:27:12.568Z,36.13
2022-08-26T14:29:52.400Z,36.63
2022-08-26T14:32:39.356Z,37.13
2022-08-26T14:35:23.545Z,36.64
2022-08-26T14:38:10.406Z,36.50
2022-08-26T14:40:58.411Z,36.74
2022-08-26T14:43:57.858Z,35.88
2022-08-26T14:46:48.379Z,36.47
2022-08-26T14:49:37.334Z,36.79
2022-08-26T14:52:17.475Z,38.01
2022-08-26T14:55:04.366Z,38.71
2022-08-26T14:57:44.428Z,38.28
2022-08-26T15:00:31.308Z,38.01
2022-08-26T15:03:12.637Z,37.46
2022-08-26T15:05:59.342Z,36.74
2022-08-26T15:08:40.116Z,38.74
2022-08-26T15:28:26.476Z,37.73
2022-08-26T15:31:14.500Z,37.10
2022-08-26T15:34:03.490Z,36.48
2022-08-26T15:36:45.992Z,36.78
2022-08-26T15:39:32.505Z,36.44
2022-08-26T15:42:12.862Z,36.01
2022-08-26T15:44:59.471Z,36.18
2022-08-26T15:48:00.979Z,37.12
2022-08-26T15:50:46.448Z,36.38
2022-08-26T15:53:36.433Z,36.67
2022-08-26T15:56:23.496Z,35.87
2022-08-26T15:59:06.325Z,35.43
2022-08-26T16:01:53.508Z,35.63
2022-08-26T16:04:33.822Z,36.49
2022-08-26T16:07:20.402Z,36.56
2022-08-26T16:10:00.977Z,38.70
2022-08-26T16:12:47.431Z,36.99
2022-08-26T16:15:28.012Z,36.71
2022-08-26T16:18:15.449Z,37.40
2022-08-26T16:21:13.761Z,37.10
2022-08-26T16:23:54.415Z,37.40
2022-08-26T16:26:51.464Z,37.89
2022-08-26T16:29:32.580Z,38.52
2022-08-26T16:32:19.405Z,37.45
2022-08-26T16:35:06.438Z,38.17
2022-08-26T16:37:54.438Z,37.20
2022-08-26T16:40:42.437Z,38.17
2022-08-26T16:43:22.562Z,38.20
2022-08-26T16:46:12.502Z,38.36
2022-08-26T16:48:52.573Z,37.68
2022-08-26T16:51:40.412Z,37.85
2022-08-26T16:54:20.525Z,37.47
2022-08-26T16:57:08.384Z,47.56
2022-08-26T16:59:48.615Z,47.25
2022-08-26T17:02:35.504Z,48.41
2022-08-26T17:05:23.394Z,59.03
2022-08-26T17:08:11.583Z,62.97
2022-08-26T17:10:51.701Z,65.25
2022-08-26T17:13:42.419Z,67.17
2022-08-26T17:16:26.616Z,69.33
2022-08-26T17:19:14.381Z,69.73
2022-08-26T17:22:01.401Z,71.01
2022-08-26T17:24:52.341Z,71.67
2022-08-26T17:27:40.417Z,71.41
2022-08-26T17:30:22.557Z,71.67
2022-08-26T17:33:10.845Z,71.24
2022-08-26T17:35:51.815Z,71.32
2022-08-26T17:38:39.352Z,70.61
2022-08-26T17:41:19.809Z,70.84
2022-08-26T17:44:06.384Z,70.73
2022-08-26T17:46:53.460Z,70.65
2022-08-26T17:49:33.447Z,70.95
2022-08-26T17:52:21.365Z,71.04
2022-08-26T17:55:08.325Z,70.83
2022-08-26T17:57:55.349Z,70.90
2022-08-26T18:00:42.363Z,71.40
2022-08-26T18:03:30.343Z,71.50
2022-08-26T18:06:15.500Z,71.89
2022-08-26T18:09:02.304Z,71.91
2022-08-26T18:11:42.408Z,72.41
2022-08-26T18:14:29.321Z,72.64
2022-08-26T18:17:17.528Z,72.75
2022-08-26T18:20:06.382Z,73.35
2022-08-26T18:22:53.293Z,73.59
2022-08-26T18:25:40.324Z,73.97
2022-08-26T18:28:34.329Z,73.66
2022-08-26T18:31:15.538Z,73.85
2022-08-26T18:34:02.313Z,73.67
2022-08-26T18:36:50.268Z,74.27
2022-08-26T18:39:37.312Z,74.68
2022-08-26T18:42:24.446Z,75.27
2022-08-26T18:45:04.307Z,75.64
2022-08-26T18:47:51.325Z,76.26
2022-08-26T18:50:31.425Z,76.30
2022-08-26T18:53:18.308Z,76.29
2022-08-26T18:56:05.319Z,75.79
2022-08-26T18:58:45.993Z,76.69
2022-08-26T19:01:33.373Z,76.62
2022-08-26T19:04:15.371Z,76.89
2022-08-26T19:07:04.519Z,77.52
2022-08-26T19:09:44.743Z,77.58
2022-08-26T19:12:33.281Z,77.75
2022-08-26T19:15:20.308Z,77.19
2022-08-26T19:18:07.344Z,76.13
2022-08-26T19:20:48.149Z,75.82
2022-08-26T19:23:35.511Z,74.90
2022-08-26T19:26:30.322Z,76.07
2022-08-26T19:29:11.301Z,76.83
2022-08-26T19:31:58.279Z,76.71
2022-08-26T19:34:45.261Z,76.55
2022-08-26T19:37:33.525Z,76.22
2022-08-26T19:40:13.944Z,75.54
2022-08-26T19:43:01.288Z,75.21
2022-08-26T19:45:41.716Z,76.79
2022-08-26T19:48:28.250Z,77.30
2022-08-26T19:51:15.267Z,77.74
2022-08-26T19:54:02.280Z,77.93
2022-08-26T19:56:49.872Z,77.88
2022-08-26T19:59:29.238Z,76.84
2022-08-26T20:02:13.091Z,77.69
2022-08-26T20:05:00.241Z,76.64
2022-08-26T20:07:48.238Z,75.15
2022-08-26T20:10:30.401Z,74.74
2022-08-26T20:13:17.239Z,74.06
2022-08-26T20:15:57.381Z,73.41
2022-08-26T20:19:04.197Z,74.77
2022-08-26T20:21:53.195Z,74.91
2022-08-26T20:24:35.159Z,75.47
2022-08-26T20:27:22.232Z,74.27
2022-08-26T20:30:04.056Z,72.81
2022-08-26T20:32:53.241Z,73.14
2022-08-26T20:35:33.789Z,72.80
2022-08-26T20:38:21.520Z,72.06
2022-08-26T20:41:08.898Z,72.70
2022-08-26T20:43:50.226Z,73.02
2022-08-26T20:46:30.636Z,72.81
2022-08-26T20:49:18.218Z,73.04
2022-08-26T20:51:59.656Z,73.56
2022-08-26T20:54:46.301Z,73.05
2022-08-26T20:57:36.091Z,73.33
2022-08-26T21:00:22.761Z,72.74
2022-08-26T21:03:14.257Z,73.33
2022-08-26T21:05:54.475Z,72.74
2022-08-26T21:08:45.739Z,72.36
2022-08-26T21:11:29.406Z,72.67
2022-08-26T21:14:18.335Z,73.61
2022-08-26T21:17:05.246Z,73.59
2022-08-26T21:19:52.392Z,75.10
2022-08-26T21:22:41.284Z,75.48
2022-08-26T21:25:28.281Z,76.04
2022-08-26T21:28:15.365Z,77.06
2022-08-26T21:30:55.166Z,77.14
2022-08-26T21:33:36.342Z,77.42
2022-08-26T21:36:25.195Z,76.83
2022-08-26T21:39:10.759Z,76.00
2022-08-26T21:41:59.132Z,75.25
2022-08-26T21:44:40.614Z,76.36
2022-08-26T21:47:27.190Z,75.73
2022-08-26T21:50:15.160Z,75.27
2022-08-26T21:52:55.264Z,75.33
2022-08-26T21:55:43.145Z,75.21
2022-08-26T21:58:23.294Z,75.26
2022-08-26T22:01:11.145Z,74.92
2022-08-26T22:03:52.635Z,74.91
2022-08-26T22:06:41.165Z,74.99
2022-08-26T22:09:31.167Z,74.36
2022-08-26T22:12:19.115Z,74.50
2022-08-26T22:14:59.461Z,74.08
2022-08-26T22:17:46.137Z,73.17
2022-08-26T22:20:33.082Z,72.41
2022-08-26T22:23:13.546Z,73.12
2022-08-26T22:26:01.073Z,73.47
2022-08-26T22:28:58.492Z,74.10
2022-08-26T22:31:47.099Z,74.59
2022-08-26T22:34:34.154Z,75.13
2022-08-26T22:37:21.170Z,74.89
2022-08-26T22:40:01.296Z,74.71
2022-08-26T22:42:56.902Z,75.66
2022-08-26T22:45:40.249Z,75.28
2022-08-26T22:48:31.099Z,75.58
2022-08-26T22:51:12.253Z,76.48
2022-08-26T22:53:59.085Z,76.90
2022-08-26T22:56:46.141Z,77.48
2022-08-26T22:59:26.538Z,78.03
2022-08-26T23:02:13.050Z,78.17
2022-08-26T23:04:53.576Z,78.55
2022-08-26T23:07:40.079Z,79.03
2022-08-26T23:10:20.637Z,79.11
2022-08-26T23:13:07.045Z,78.97
2022-08-26T23:15:47.651Z,79.08
2022-08-26T23:18:34.043Z,79.13
2022-08-26T23:21:21.286Z,78.18
2022-08-26T23:24:29.027Z,78.10
2022-08-26T23:27:23.001Z,78.48
2022-08-26T23:30:15.999Z,77.90
2022-08-26T23:32:56.199Z,77.72
2022-08-26T23:35:43.009Z,77.89
2022-08-26T23:38:30.038Z,77.56
2022-08-26T23:41:17.077Z,77.16
2022-08-26T23:44:05.051Z,76.90
2022-08-26T23:46:45.459Z,76.42
2022-08-26T23:49:32.040Z,76.10
2022-08-26T23:52:31.055Z,75.76
2022-08-26T23:55:20.025Z,75.41
2022-08-26T23:58:07.088Z,74.86
